Auburndale, Wisconsin
Current Conditions -  °F | °C
As of 5:54 PM on Tuesday 21 Oct 2014 (Local Time) from KMFI Reporting Station
Clear Clear  
Wind Chill: 45°   Ceiling: Unl
Heat Index: 47°   Visibility: 10mi
Dew Point: 35°   Wind: 5mph
Humidity: 63%   Direction: 120°ESE
Pressure: 30.22"   Gusts: NA
Location:  44.63°N, 90.01°W
Report Text: KMFI 212254Z AUTO 12004KT 10SM CLR 08/02 A3022 RMK AO2 SLP242 T00830017
Loading
Personal Weather Stations






























Interactive Weather Map
Tropical Storm Tracking
New forecast layout! Learn more

10-Day Weather Forecast

Advertisements
Track Severe Weather on mobile